sensor_id;sensor_type;location;lat;lon;timestamp;pressure;altitude;pressure_sealevel;temperature;humidity
68301;BME280;55146;47.468;18.806;2022-12-18T00:02:04;101493.53;;;-1.79;87.67
68301;BME280;55146;47.468;18.806;2022-12-18T00:04:30;101491.97;;;-1.82;87.88
68301;BME280;55146;47.468;18.806;2022-12-18T00:06:55;101496.22;;;-1.79;87.87
68301;BME280;55146;47.468;18.806;2022-12-18T00:09:21;101498.16;;;-1.89;88.38
68301;BME280;55146;47.468;18.806;2022-12-18T00:11:46;101503.78;;;-1.83;88.23
68301;BME280;55146;47.468;18.806;2022-12-18T00:14:12;101513.19;;;-1.87;88.74
68301;BME280;55146;47.468;18.806;2022-12-18T00:16:38;101522.38;;;-1.97;88.87
68301;BME280;55146;47.468;18.806;2022-12-18T00:19:04;101528.81;;;-1.90;88.12
68301;BME280;55146;47.468;18.806;2022-12-18T00:21:31;101519.31;;;-2.03;89.03
68301;BME280;55146;47.468;18.806;2022-12-18T00:23:58;101535.06;;;-1.90;88.46
68301;BME280;55146;47.468;18.806;2022-12-18T00:26:30;101532.59;;;-1.83;87.39
68301;BME280;55146;47.468;18.806;2022-12-18T00:28:58;101541.53;;;-1.83;86.90
68301;BME280;55146;47.468;18.806;2022-12-18T00:31:25;101549.13;;;-1.78;86.56
68301;BME280;55146;47.468;18.806;2022-12-18T00:33:51;101547.41;;;-1.87;86.31
68301;BME280;55146;47.468;18.806;2022-12-18T00:36:19;101557.00;;;-1.85;86.24
68301;BME280;55146;47.468;18.806;2022-12-18T00:38:46;101555.63;;;-1.89;85.80
68301;BME280;55146;47.468;18.806;2022-12-18T00:41:13;101557.81;;;-1.92;85.71
68301;BME280;55146;47.468;18.806;2022-12-18T00:43:39;101557.84;;;-1.84;85.52
68301;BME280;55146;47.468;18.806;2022-12-18T00:46:05;101566.53;;;-1.98;85.88
68301;BME280;55146;47.468;18.806;2022-12-18T00:48:31;101564.81;;;-1.99;85.92
68301;BME280;55146;47.468;18.806;2022-12-18T00:50:56;101560.22;;;-2.07;86.68
68301;BME280;55146;47.468;18.806;2022-12-18T00:53:22;101571.84;;;-2.07;87.01
68301;BME280;55146;47.468;18.806;2022-12-18T00:55:47;101565.44;;;-2.06;87.78
68301;BME280;55146;47.468;18.806;2022-12-18T00:58:14;101571.12;;;-2.09;88.28
68301;BME280;55146;47.468;18.806;2022-12-18T01:00:40;101576.53;;;-2.09;88.10
68301;BME280;55146;47.468;18.806;2022-12-18T01:03:05;101572.25;;;-2.19;88.11
68301;BME280;55146;47.468;18.806;2022-12-18T01:05:31;101575.91;;;-2.03;87.16
68301;BME280;55146;47.468;18.806;2022-12-18T01:07:57;101576.59;;;-2.00;86.71
68301;BME280;55146;47.468;18.806;2022-12-18T01:10:23;101595.47;;;-2.00;86.18
68301;BME280;55146;47.468;18.806;2022-12-18T01:12:48;101590.78;;;-1.98;86.15
68301;BME280;55146;47.468;18.806;2022-12-18T01:15:14;101597.66;;;-2.04;85.80
68301;BME280;55146;47.468;18.806;2022-12-18T01:17:40;101597.47;;;-2.03;85.93
68301;BME280;55146;47.468;18.806;2022-12-18T01:20:06;101604.72;;;-2.03;85.90
68301;BME280;55146;47.468;18.806;2022-12-18T01:22:33;101596.81;;;-2.05;85.96
68301;BME280;55146;47.468;18.806;2022-12-18T01:24:58;101599.31;;;-2.03;85.88
68301;BME280;55146;47.468;18.806;2022-12-18T01:27:23;101601.97;;;-2.11;86.44
68301;BME280;55146;47.468;18.806;2022-12-18T01:29:49;101608.22;;;-2.11;86.60
68301;BME280;55146;47.468;18.806;2022-12-18T01:32:14;101606.75;;;-2.23;87.28
68301;BME280;55146;47.468;18.806;2022-12-18T01:34:40;101607.19;;;-2.10;87.87
68301;BME280;55146;47.468;18.806;2022-12-18T01:37:05;101609.97;;;-2.01;87.98
68301;BME280;55146;47.468;18.806;2022-12-18T01:39:31;101606.28;;;-2.18;87.71
68301;BME280;55146;47.468;18.806;2022-12-18T01:41:58;101607.03;;;-2.26;87.91
68301;BME280;55146;47.468;18.806;2022-12-18T01:49:48;101613.19;;;-2.16;87.97
68301;BME280;55146;47.468;18.806;2022-12-18T01:52:15;101620.66;;;-2.10;87.41
68301;BME280;55146;47.468;18.806;2022-12-18T01:54:41;101622.12;;;-2.15;87.03
68301;BME280;55146;47.468;18.806;2022-12-18T01:57:06;101629.78;;;-2.11;86.80
68301;BME280;55146;47.468;18.806;2022-12-18T01:59:33;101630.78;;;-2.12;86.62
68301;BME280;55146;47.468;18.806;2022-12-18T02:02:00;101632.28;;;-2.09;86.35
68301;BME280;55146;47.468;18.806;2022-12-18T02:04:27;101633.94;;;-2.16;86.30
68301;BME280;55146;47.468;18.806;2022-12-18T02:09:44;101631.00;;;-2.05;86.80
68301;BME280;55146;47.468;18.806;2022-12-18T02:12:17;101631.84;;;-2.22;87.03
68301;BME280;55146;47.468;18.806;2022-12-18T02:15:09;101629.06;;;-2.48;87.30
68301;BME280;55146;47.468;18.806;2022-12-18T02:17:42;101629.09;;;-2.58;87.64
68301;BME280;55146;47.468;18.806;2022-12-18T02:20:13;101635.06;;;-2.54;87.70
68301;BME280;55146;47.468;18.806;2022-12-18T02:23:01;101643.75;;;-2.42;87.33
68301;BME280;55146;47.468;18.806;2022-12-18T02:28:06;101650.37;;;-2.55;87.03
68301;BME280;55146;47.468;18.806;2022-12-18T02:30:34;101659.12;;;-2.53;86.80
68301;BME280;55146;47.468;18.806;2022-12-18T02:33:04;101658.09;;;-2.42;86.84
68301;BME280;55146;47.468;18.806;2022-12-18T02:35:30;101662.22;;;-2.48;87.00
68301;BME280;55146;47.468;18.806;2022-12-18T02:37:56;101661.53;;;-2.50;86.78
68301;BME280;55146;47.468;18.806;2022-12-18T02:40:24;101669.88;;;-2.53;87.15
68301;BME280;55146;47.468;18.806;2022-12-18T02:42:50;101670.84;;;-2.44;86.73
68301;BME280;55146;47.468;18.806;2022-12-18T02:45:16;101675.84;;;-2.49;87.15
68301;BME280;55146;47.468;18.806;2022-12-18T02:47:43;101688.84;;;-2.45;87.87
68301;BME280;55146;47.468;18.806;2022-12-18T02:55:24;101677.19;;;-2.35;88.06
68301;BME280;55146;47.468;18.806;2022-12-18T02:57:55;101671.69;;;-2.43;88.01
68301;BME280;55146;47.468;18.806;2022-12-18T03:00:29;101678.06;;;-2.45;88.28
68301;BME280;55146;47.468;18.806;2022-12-18T03:03:16;101684.03;;;-2.68;87.48
68301;BME280;55146;47.468;18.806;2022-12-18T03:06:08;101687.94;;;-2.53;88.39
68301;BME280;55146;47.468;18.806;2022-12-18T03:08:42;101694.34;;;-2.64;87.98
68301;BME280;55146;47.468;18.806;2022-12-18T03:11:10;101696.09;;;-2.72;87.96
68301;BME280;55146;47.468;18.806;2022-12-18T03:16:06;101698.88;;;-2.64;87.65
68301;BME280;55146;47.468;18.806;2022-12-18T03:18:37;101704.47;;;-2.75;87.35
68301;BME280;55146;47.468;18.806;2022-12-18T03:21:05;101706.16;;;-2.74;88.40
68301;BME280;55146;47.468;18.806;2022-12-18T03:23:39;101704.44;;;-2.66;87.95
68301;BME280;55146;47.468;18.806;2022-12-18T03:26:10;101707.38;;;-2.59;87.29
68301;BME280;55146;47.468;18.806;2022-12-18T03:28:40;101716.28;;;-2.59;87.44
68301;BME280;55146;47.468;18.806;2022-12-18T03:31:09;101714.78;;;-2.71;87.40
68301;BME280;55146;47.468;18.806;2022-12-18T03:36:04;101724.47;;;-2.78;87.33
68301;BME280;55146;47.468;18.806;2022-12-18T03:38:30;101738.75;;;-2.77;87.28
68301;BME280;55146;47.468;18.806;2022-12-18T03:41:09;101739.06;;;-2.80;87.06
68301;BME280;55146;47.468;18.806;2022-12-18T03:43:59;101742.59;;;-2.80;87.47
68301;BME280;55146;47.468;18.806;2022-12-18T03:54:26;101751.53;;;-2.89;86.79
68301;BME280;55146;47.468;18.806;2022-12-18T03:57:04;101753.28;;;-2.98;86.76
68301;BME280;55146;47.468;18.806;2022-12-18T03:59:32;101751.19;;;-3.04;87.09
68301;BME280;55146;47.468;18.806;2022-12-18T04:02:01;101749.75;;;-3.08;87.47
68301;BME280;55146;47.468;18.806;2022-12-18T04:04:30;101759.41;;;-3.05;87.23
68301;BME280;55146;47.468;18.806;2022-12-18T04:06:57;101762.50;;;-3.00;86.45
68301;BME280;55146;47.468;18.806;2022-12-18T04:09:23;101762.81;;;-3.03;86.60
68301;BME280;55146;47.468;18.806;2022-12-18T04:11:51;101764.75;;;-2.96;85.99
68301;BME280;55146;47.468;18.806;2022-12-18T04:14:17;101771.59;;;-3.11;86.75
68301;BME280;55146;47.468;18.806;2022-12-18T04:16:42;101763.06;;;-2.97;86.58
68301;BME280;55146;47.468;18.806;2022-12-18T04:19:08;101758.63;;;-2.88;85.92
68301;BME280;55146;47.468;18.806;2022-12-18T04:21:33;101760.91;;;-2.93;85.91
68301;BME280;55146;47.468;18.806;2022-12-18T04:23:58;101759.53;;;-3.07;85.98
68301;BME280;55146;47.468;18.806;2022-12-18T04:26:24;101778.41;;;-3.16;86.24
68301;BME280;55146;47.468;18.806;2022-12-18T04:28:49;101780.81;;;-3.23;86.51
68301;BME280;55146;47.468;18.806;2022-12-18T04:31:14;101777.81;;;-3.20;86.90
68301;BME280;55146;47.468;18.806;2022-12-18T04:33:40;101782.91;;;-3.07;86.08
68301;BME280;55146;47.468;18.806;2022-12-18T04:36:05;101778.53;;;-3.18;86.45
68301;BME280;55146;47.468;18.806;2022-12-18T04:38:31;101770.19;;;-3.24;86.77
68301;BME280;55146;47.468;18.806;2022-12-18T04:40:56;101784.50;;;-3.24;86.36
68301;BME280;55146;47.468;18.806;2022-12-18T04:43:22;101791.28;;;-3.20;85.67
68301;BME280;55146;47.468;18.806;2022-12-18T04:45:47;101787.72;;;-3.20;85.29
68301;BME280;55146;47.468;18.806;2022-12-18T04:48:12;101784.75;;;-3.27;85.58
68301;BME280;55146;47.468;18.806;2022-12-18T04:50:38;101797.25;;;-3.36;86.04
68301;BME280;55146;47.468;18.806;2022-12-18T04:53:03;101804.19;;;-3.43;86.11
68301;BME280;55146;47.468;18.806;2022-12-18T04:55:29;101802.91;;;-3.48;86.19
68301;BME280;55146;47.468;18.806;2022-12-18T04:57:55;101814.09;;;-3.53;85.85
68301;BME280;55146;47.468;18.806;2022-12-18T05:00:20;101809.41;;;-3.60;86.58
68301;BME280;55146;47.468;18.806;2022-12-18T05:02:46;101819.03;;;-3.68;86.45
68301;BME280;55146;47.468;18.806;2022-12-18T05:05:11;101821.19;;;-3.52;86.14
68301;BME280;55146;47.468;18.806;2022-12-18T05:07:37;101829.69;;;-3.47;85.79
68301;BME280;55146;47.468;18.806;2022-12-18T05:10:03;101825.72;;;-3.52;85.72
68301;BME280;55146;47.468;18.806;2022-12-18T05:12:30;101828.66;;;-3.65;86.39
68301;BME280;55146;47.468;18.806;2022-12-18T05:14:56;101832.06;;;-3.53;86.12
68301;BME280;55146;47.468;18.806;2022-12-18T05:17:21;101836.19;;;-3.59;86.13
68301;BME280;55146;47.468;18.806;2022-12-18T05:19:46;101827.94;;;-3.57;86.17
68301;BME280;55146;47.468;18.806;2022-12-18T05:22:12;101828.78;;;-3.57;85.66
68301;BME280;55146;47.468;18.806;2022-12-18T05:24:37;101837.28;;;-3.61;85.41
68301;BME280;55146;47.468;18.806;2022-12-18T05:27:02;101839.41;;;-3.65;85.10
68301;BME280;55146;47.468;18.806;2022-12-18T05:29:28;101844.38;;;-3.60;85.31
68301;BME280;55146;47.468;18.806;2022-12-18T05:31:53;101843.78;;;-3.64;85.26
68301;BME280;55146;47.468;18.806;2022-12-18T05:34:19;101838.69;;;-3.67;85.24
68301;BME280;55146;47.468;18.806;2022-12-18T05:36:44;101841.53;;;-3.78;85.62
68301;BME280;55146;47.468;18.806;2022-12-18T05:39:09;101841.53;;;-3.78;85.89
68301;BME280;55146;47.468;18.806;2022-12-18T05:41:35;101848.59;;;-3.77;85.42
68301;BME280;55146;47.468;18.806;2022-12-18T05:44:00;101850.25;;;-3.86;85.67
68301;BME280;55146;47.468;18.806;2022-12-18T05:46:26;101859.19;;;-3.85;85.75
68301;BME280;55146;47.468;18.806;2022-12-18T05:48:51;101860.87;;;-3.84;85.49
68301;BME280;55146;47.468;18.806;2022-12-18T05:51:19;101864.81;;;-3.88;85.99
68301;BME280;55146;47.468;18.806;2022-12-18T05:53:45;101869.94;;;-3.85;86.12
68301;BME280;55146;47.468;18.806;2022-12-18T05:56:13;101865.59;;;-3.77;86.43
68301;BME280;55146;47.468;18.806;2022-12-18T05:58:40;101857.53;;;-3.67;85.83
68301;BME280;55146;47.468;18.806;2022-12-18T06:01:16;101862.78;;;-3.65;85.60
68301;BME280;55146;47.468;18.806;2022-12-18T06:03:42;101867.56;;;-3.69;85.37
68301;BME280;55146;47.468;18.806;2022-12-18T06:06:16;101874.63;;;-3.78;85.33
68301;BME280;55146;47.468;18.806;2022-12-18T06:08:41;101876.59;;;-3.70;85.24
68301;BME280;55146;47.468;18.806;2022-12-18T06:11:07;101871.50;;;-3.83;85.22
68301;BME280;55146;47.468;18.806;2022-12-18T06:13:32;101870.47;;;-3.91;85.78
68301;BME280;55146;47.468;18.806;2022-12-18T06:15:57;101878.72;;;-3.83;85.74
68301;BME280;55146;47.468;18.806;2022-12-18T06:18:23;101878.56;;;-3.82;85.48
68301;BME280;55146;47.468;18.806;2022-12-18T06:20:58;101886.56;;;-4.01;85.75
68301;BME280;55146;47.468;18.806;2022-12-18T06:23:24;101889.84;;;-3.97;85.77
68301;BME280;55146;47.468;18.806;2022-12-18T06:25:49;101890.94;;;-4.00;85.62
68301;BME280;55146;47.468;18.806;2022-12-18T06:28:15;101900.91;;;-3.91;85.19
68301;BME280;55146;47.468;18.806;2022-12-18T06:30:43;101901.13;;;-4.03;85.68
68301;BME280;55146;47.468;18.806;2022-12-18T06:33:08;101904.06;;;-4.07;86.06
68301;BME280;55146;47.468;18.806;2022-12-18T06:35:34;101914.78;;;-4.16;86.34
68301;BME280;55146;47.468;18.806;2022-12-18T06:38:01;101917.78;;;-4.10;86.33
68301;BME280;55146;47.468;18.806;2022-12-18T06:40:26;101921.97;;;-3.96;85.48
68301;BME280;55146;47.468;18.806;2022-12-18T06:42:52;101922.03;;;-4.07;85.66
68301;BME280;55146;47.468;18.806;2022-12-18T06:45:17;101929.72;;;-4.02;86.27
68301;BME280;55146;47.468;18.806;2022-12-18T06:47:43;101924.22;;;-3.91;85.44
68301;BME280;55146;47.468;18.806;2022-12-18T06:50:08;101927.91;;;-3.92;85.84
68301;BME280;55146;47.468;18.806;2022-12-18T06:52:33;101928.87;;;-3.93;85.83
68301;BME280;55146;47.468;18.806;2022-12-18T06:54:59;101927.16;;;-4.04;86.23
68301;BME280;55146;47.468;18.806;2022-12-18T06:57:24;101939.38;;;-3.90;85.66
68301;BME280;55146;47.468;18.806;2022-12-18T06:59:50;101948.44;;;-3.82;85.45
68301;BME280;55146;47.468;18.806;2022-12-18T07:02:15;101952.22;;;-3.94;85.71
68301;BME280;55146;47.468;18.806;2022-12-18T07:04:41;101949.41;;;-3.92;86.12
68301;BME280;55146;47.468;18.806;2022-12-18T07:07:06;101947.34;;;-3.79;85.61
68301;BME280;55146;47.468;18.806;2022-12-18T07:09:32;101959.47;;;-3.85;86.03
68301;BME280;55146;47.468;18.806;2022-12-18T07:11:57;101962.37;;;-3.67;85.61
68301;BME280;55146;47.468;18.806;2022-12-18T07:14:22;101964.34;;;-3.69;85.54
68301;BME280;55146;47.468;18.806;2022-12-18T07:16:48;101969.78;;;-3.50;85.41
68301;BME280;55146;47.468;18.806;2022-12-18T07:19:13;101977.97;;;-3.51;85.62
68301;BME280;55146;47.468;18.806;2022-12-18T07:21:39;101979.56;;;-3.49;85.79
68301;BME280;55146;47.468;18.806;2022-12-18T07:24:05;101980.88;;;-3.34;85.44
68301;BME280;55146;47.468;18.806;2022-12-18T07:26:30;101987.13;;;-3.23;85.21
68301;BME280;55146;47.468;18.806;2022-12-18T07:28:56;101993.25;;;-3.12;85.31
68301;BME280;55146;47.468;18.806;2022-12-18T07:31:22;101993.69;;;-2.97;85.64
68301;BME280;55146;47.468;18.806;2022-12-18T07:33:48;101997.22;;;-2.77;85.15
68301;BME280;55146;47.468;18.806;2022-12-18T07:36:13;102006.06;;;-2.66;84.49
68301;BME280;55146;47.468;18.806;2022-12-18T07:38:39;102003.91;;;-2.53;83.95
68301;BME280;55146;47.468;18.806;2022-12-18T07:41:10;101998.53;;;-2.43;84.06
68301;BME280;55146;47.468;18.806;2022-12-18T07:43:36;102008.12;;;-2.21;83.34
68301;BME280;55146;47.468;18.806;2022-12-18T07:46:02;102018.78;;;-2.10;82.45
68301;BME280;55146;47.468;18.806;2022-12-18T07:48:28;102016.44;;;-1.95;82.34
68301;BME280;55146;47.468;18.806;2022-12-18T07:51:02;102018.97;;;-1.84;82.21
68301;BME280;55146;47.468;18.806;2022-12-18T07:53:29;102018.50;;;-1.70;81.67
68301;BME280;55146;47.468;18.806;2022-12-18T07:55:56;102027.00;;;-1.65;81.37
68301;BME280;55146;47.468;18.806;2022-12-18T07:58:22;102028.69;;;-1.64;80.81
68301;BME280;55146;47.468;18.806;2022-12-18T08:00:47;102028.44;;;-1.61;81.00
68301;BME280;55146;47.468;18.806;2022-12-18T08:03:13;102037.72;;;-1.83;81.89
68301;BME280;55146;47.468;18.806;2022-12-18T08:05:38;102030.94;;;-1.59;82.13
68301;BME280;55146;47.468;18.806;2022-12-18T08:08:03;102027.38;;;-1.50;82.50
68301;BME280;55146;47.468;18.806;2022-12-18T08:10:29;102040.31;;;-1.54;82.11
68301;BME280;55146;47.468;18.806;2022-12-18T08:12:54;102038.91;;;-1.58;82.20
68301;BME280;55146;47.468;18.806;2022-12-18T08:15:19;102039.34;;;-1.62;82.14
68301;BME280;55146;47.468;18.806;2022-12-18T08:17:45;102046.53;;;-1.44;81.98
68301;BME280;55146;47.468;18.806;2022-12-18T08:20:11;102054.06;;;-1.47;81.88
68301;BME280;55146;47.468;18.806;2022-12-18T08:22:36;102053.31;;;-1.40;82.03
68301;BME280;55146;47.468;18.806;2022-12-18T08:25:02;102052.44;;;-1.31;81.79
68301;BME280;55146;47.468;18.806;2022-12-18T08:27:28;102064.75;;;-1.18;82.01
68301;BME280;55146;47.468;18.806;2022-12-18T08:29:56;102062.84;;;-1.08;81.79
68301;BME280;55146;47.468;18.806;2022-12-18T08:32:21;102063.00;;;-0.92;81.14
68301;BME280;55146;47.468;18.806;2022-12-18T08:34:46;102066.53;;;-0.82;81.56
68301;BME280;55146;47.468;18.806;2022-12-18T08:37:12;102062.47;;;-0.68;80.89
68301;BME280;55146;47.468;18.806;2022-12-18T08:39:37;102065.56;;;-0.63;80.63
68301;BME280;55146;47.468;18.806;2022-12-18T08:42:03;102068.31;;;-0.55;81.07
68301;BME280;55146;47.468;18.806;2022-12-18T08:44:47;102066.69;;;-0.48;80.58
68301;BME280;55146;47.468;18.806;2022-12-18T08:47:12;102068.56;;;-0.49;80.55
68301;BME280;55146;47.468;18.806;2022-12-18T08:49:37;102063.75;;;-0.37;80.66
68301;BME280;55146;47.468;18.806;2022-12-18T08:52:03;102072.97;;;-0.30;80.62
68301;BME280;55146;47.468;18.806;2022-12-18T08:54:29;102070.19;;;-0.20;80.25
68301;BME280;55146;47.468;18.806;2022-12-18T08:56:55;102073.78;;;-0.12;80.10
68301;BME280;55146;47.468;18.806;2022-12-18T08:59:20;102073.91;;;-0.39;81.33
68301;BME280;55146;47.468;18.806;2022-12-18T09:01:47;102081.47;;;-0.25;81.33
68301;BME280;55146;47.468;18.806;2022-12-18T09:04:13;102083.31;;;-0.08;80.02
68301;BME280;55146;47.468;18.806;2022-12-18T09:06:39;102082.44;;;0.10;79.72
68301;BME280;55146;47.468;18.806;2022-12-18T09:09:05;102087.41;;;-0.04;79.21
68301;BME280;55146;47.468;18.806;2022-12-18T09:11:31;102074.63;;;0.07;78.95
68301;BME280;55146;47.468;18.806;2022-12-18T09:13:58;102088.53;;;0.37;78.82
68301;BME280;55146;47.468;18.806;2022-12-18T09:16:25;102094.06;;;0.28;78.43
68301;BME280;55146;47.468;18.806;2022-12-18T09:18:51;102085.09;;;0.27;76.88
68301;BME280;55146;47.468;18.806;2022-12-18T09:21:19;102083.97;;;0.38;77.03
68301;BME280;55146;47.468;18.806;2022-12-18T09:23:49;102088.47;;;0.47;78.99
68301;BME280;55146;47.468;18.806;2022-12-18T09:26:15;102087.22;;;0.67;77.83
68301;BME280;55146;47.468;18.806;2022-12-18T09:28:40;102083.25;;;0.88;77.27
68301;BME280;55146;47.468;18.806;2022-12-18T09:31:08;102081.53;;;0.87;76.57
68301;BME280;55146;47.468;18.806;2022-12-18T09:33:35;102080.13;;;0.74;76.54
68301;BME280;55146;47.468;18.806;2022-12-18T09:36:06;102076.06;;;1.04;76.40
68301;BME280;55146;47.468;18.806;2022-12-18T09:38:32;102083.03;;;1.15;75.62
68301;BME280;55146;47.468;18.806;2022-12-18T09:41:04;102078.97;;;1.19;75.15
68301;BME280;55146;47.468;18.806;2022-12-18T09:43:40;102081.03;;;1.25;75.69
68301;BME280;55146;47.468;18.806;2022-12-18T09:46:26;102085.53;;;1.58;74.94
68301;BME280;55146;47.468;18.806;2022-12-18T09:48:57;102091.97;;;1.74;74.38
68301;BME280;55146;47.468;18.806;2022-12-18T09:51:30;102085.03;;;1.63;73.85
68301;BME280;55146;47.468;18.806;2022-12-18T09:54:01;102085.41;;;1.84;74.68
68301;BME280;55146;47.468;18.806;2022-12-18T09:56:31;102076.69;;;1.56;74.88
68301;BME280;55146;47.468;18.806;2022-12-18T09:59:01;102081.81;;;1.68;74.08
68301;BME280;55146;47.468;18.806;2022-12-18T10:01:28;102082.00;;;1.82;72.89
68301;BME280;55146;47.468;18.806;2022-12-18T10:03:54;102089.12;;;1.83;74.36
68301;BME280;55146;47.468;18.806;2022-12-18T10:06:36;102087.75;;;1.87;72.78
68301;BME280;55146;47.468;18.806;2022-12-18T10:09:30;102079.62;;;1.95;73.02
68301;BME280;55146;47.468;18.806;2022-12-18T10:12:09;102076.22;;;1.77;73.78
68301;BME280;55146;47.468;18.806;2022-12-18T10:15:02;102077.72;;;1.63;73.51
68301;BME280;55146;47.468;18.806;2022-12-18T10:22:43;102082.66;;;2.25;71.95
68301;BME280;55146;47.468;18.806;2022-12-18T10:25:26;102081.00;;;2.08;72.65
68301;BME280;55146;47.468;18.806;2022-12-18T10:27:57;102079.59;;;2.36;71.59
68301;BME280;55146;47.468;18.806;2022-12-18T10:30:24;102076.56;;;2.31;72.01
68301;BME280;55146;47.468;18.806;2022-12-18T10:32:51;102076.19;;;2.58;72.26
68301;BME280;55146;47.468;18.806;2022-12-18T10:35:23;102077.34;;;2.64;71.14
68301;BME280;55146;47.468;18.806;2022-12-18T10:41:02;102071.03;;;3.18;70.08
68301;BME280;55146;47.468;18.806;2022-12-18T10:43:30;102069.81;;;3.21;68.79
68301;BME280;55146;47.468;18.806;2022-12-18T10:46:00;102066.63;;;3.09;68.27
68301;BME280;55146;47.468;18.806;2022-12-18T10:48:26;102074.47;;;3.43;67.88
68301;BME280;55146;47.468;18.806;2022-12-18T10:50:53;102073.03;;;3.55;68.00
68301;BME280;55146;47.468;18.806;2022-12-18T10:53:26;102072.88;;;3.26;66.87
68301;BME280;55146;47.468;18.806;2022-12-18T10:55:54;102074.28;;;3.45;68.37
68301;BME280;55146;47.468;18.806;2022-12-18T10:58:33;102071.34;;;3.77;67.17
68301;BME280;55146;47.468;18.806;2022-12-18T11:01:16;102068.13;;;3.96;65.08
68301;BME280;55146;47.468;18.806;2022-12-18T11:04:08;102064.03;;;4.00;65.51
68301;BME280;55146;47.468;18.806;2022-12-18T11:06:33;102060.25;;;4.24;64.63
68301;BME280;55146;47.468;18.806;2022-12-18T11:09:05;102052.78;;;4.56;63.74
68301;BME280;55146;47.468;18.806;2022-12-18T11:11:32;102049.50;;;4.75;62.08
68301;BME280;55146;47.468;18.806;2022-12-18T11:14:06;102043.94;;;4.83;61.99
68301;BME280;55146;47.468;18.806;2022-12-18T11:16:44;102039.13;;;4.70;63.45
68301;BME280;55146;47.468;18.806;2022-12-18T11:19:20;102048.25;;;4.92;63.04
68301;BME280;55146;47.468;18.806;2022-12-18T11:21:47;102054.06;;;5.04;62.99
68301;BME280;55146;47.468;18.806;2022-12-18T11:24:32;102050.87;;;5.00;62.00
68301;BME280;55146;47.468;18.806;2022-12-18T11:27:01;102043.56;;;4.71;62.70
68301;BME280;55146;47.468;18.806;2022-12-18T11:29:37;102041.84;;;4.70;62.29
68301;BME280;55146;47.468;18.806;2022-12-18T11:32:24;102038.97;;;4.86;61.69
68301;BME280;55146;47.468;18.806;2022-12-18T11:35:03;102036.19;;;5.01;61.94
68301;BME280;55146;47.468;18.806;2022-12-18T11:37:29;102033.59;;;4.93;60.88
68301;BME280;55146;47.468;18.806;2022-12-18T11:40:00;102036.87;;;5.03;60.80
68301;BME280;55146;47.468;18.806;2022-12-18T11:42:54;102037.53;;;5.05;61.42
68301;BME280;55146;47.468;18.806;2022-12-18T11:45:31;102037.47;;;5.20;60.22
68301;BME280;55146;47.468;18.806;2022-12-18T11:48:42;102031.22;;;5.05;61.30
68301;BME280;55146;47.468;18.806;2022-12-18T11:50:52;102028.06;;;4.86;61.19
68301;BME280;55146;47.468;18.806;2022-12-18T11:53:19;102020.81;;;4.94;60.30
68301;BME280;55146;47.468;18.806;2022-12-18T11:55:48;102018.84;;;4.87;60.89
68301;BME280;55146;47.468;18.806;2022-12-18T12:03:46;102015.28;;;4.87;61.59
68301;BME280;55146;47.468;18.806;2022-12-18T12:09:14;102016.31;;;4.86;59.29
68301;BME280;55146;47.468;18.806;2022-12-18T12:17:20;102013.97;;;4.68;59.91
68301;BME280;55146;47.468;18.806;2022-12-18T12:25:39;102006.19;;;5.01;59.97
68301;BME280;55146;47.468;18.806;2022-12-18T12:39:05;102009.28;;;5.13;59.11
68301;BME280;55146;47.468;18.806;2022-12-18T12:41:33;102015.28;;;4.87;60.16
68301;BME280;55146;47.468;18.806;2022-12-18T12:44:23;102017.31;;;4.41;61.36
68301;BME280;55146;47.468;18.806;2022-12-18T12:46:52;102021.38;;;4.74;60.05
68301;BME280;55146;47.468;18.806;2022-12-18T12:49:22;102031.62;;;4.58;59.02
68301;BME280;55146;47.468;18.806;2022-12-18T12:51:58;102032.28;;;4.74;60.10
68301;BME280;55146;47.468;18.806;2022-12-18T12:54:26;102034.72;;;4.55;61.23
68301;BME280;55146;47.468;18.806;2022-12-18T12:57:21;102047.25;;;4.26;61.79
68301;BME280;55146;47.468;18.806;2022-12-18T13:00:10;102044.13;;;4.00;62.78
68301;BME280;55146;47.468;18.806;2022-12-18T13:02:51;102041.94;;;3.95;61.71
68301;BME280;55146;47.468;18.806;2022-12-18T13:05:40;102046.66;;;3.79;62.76
68301;BME280;55146;47.468;18.806;2022-12-18T13:08:11;102052.28;;;3.54;62.06
68301;BME280;55146;47.468;18.806;2022-12-18T13:10:41;102056.00;;;3.31;64.35
68301;BME280;55146;47.468;18.806;2022-12-18T13:21:01;102059.97;;;3.20;64.84
68301;BME280;55146;47.468;18.806;2022-12-18T13:23:37;102063.16;;;2.93;66.32
68301;BME280;55146;47.468;18.806;2022-12-18T13:36:43;102070.25;;;3.02;66.47
68301;BME280;55146;47.468;18.806;2022-12-18T13:41:45;102061.81;;;2.89;67.28
68301;BME280;55146;47.468;18.806;2022-12-18T13:44:48;102059.44;;;2.85;67.51
68301;BME280;55146;47.468;18.806;2022-12-18T13:47:32;102069.31;;;2.78;68.47
68301;BME280;55146;47.468;18.806;2022-12-18T13:49:59;102084.28;;;2.66;67.90
68301;BME280;55146;47.468;18.806;2022-12-18T13:52:26;102074.63;;;2.64;68.73
68301;BME280;55146;47.468;18.806;2022-12-18T13:55:01;102079.91;;;2.49;69.03
68301;BME280;55146;47.468;18.806;2022-12-18T13:57:33;102078.44;;;2.14;69.65
68301;BME280;55146;47.468;18.806;2022-12-18T14:00:23;102077.25;;;2.33;69.30
68301;BME280;55146;47.468;18.806;2022-12-18T14:02:50;102074.37;;;2.34;70.35
68301;BME280;55146;47.468;18.806;2022-12-18T14:05:30;102076.72;;;2.05;70.69
68301;BME280;55146;47.468;18.806;2022-12-18T14:08:01;102071.81;;;2.00;70.68
68301;BME280;55146;47.468;18.806;2022-12-18T14:10:28;102082.66;;;2.17;70.83
68301;BME280;55146;47.468;18.806;2022-12-18T14:12:53;102081.81;;;2.16;71.62
68301;BME280;55146;47.468;18.806;2022-12-18T14:15:41;102081.16;;;2.14;71.53
68301;BME280;55146;47.468;18.806;2022-12-18T14:18:42;102081.00;;;2.08;71.67
68301;BME280;55146;47.468;18.806;2022-12-18T14:21:22;102090.84;;;2.09;71.70
68301;BME280;55146;47.468;18.806;2022-12-18T14:23:48;102088.28;;;1.99;71.97